Flight Track Log - Related Links

Times and Time Zones

All times are in EDT time to prevent confusion due to time zone crossing. See the RPA3392 flight status page for this flight to view local times or setup timezone preferences in your user account.

Time Position Orientation Groundspeed Altitude Reporting Facility
EDT Latitude Longitude Course Direction KTS MPH feet Rate Location/Type
Fri 05:56:47 PM 44.9000 -93.2500 180° South 161 185 2,000  Level Minneapolis TRACON
Fri 05:57:47 PM 44.8833 -93.3333 254° West 225 259 3,200 2,107 Climbing Minneapolis TRACON
Fri 05:58:58 PM 44.8142 -93.3947 212° Southwest 257 296 6,600 2,284 Climbing Minneapolis Center
Fri 05:59:00 PM 44.7104 -92.5986 152° Southeast  Level Estimated
Fri 06:00:00 PM 44.6670 -92.4435 150° Southeast  Level Estimated
Fri 06:00:01 PM 44.7503 -93.3486 153° Southeast 277 319 8,300  Level Minneapolis Center
Fri 06:01:00 PM 44.6233 -92.2885 153° Southeast  Level Estimated
Fri 06:01:03 PM 44.6800 -93.2894 149° Southeast 306 352 10,800  Level Minneapolis Center
Fri 06:02:00 PM 44.5795 -92.1338 180° South  Level Estimated
Fri 06:02:05 PM 44.6031 -93.2222 148° Southeast 332 382 12,500  Level Minneapolis Center
Fri 06:03:07 PM 44.5058 -93.1369 148° Southeast 345 397 14,900 2,032 Climbing Minneapolis Center
Fri 06:04:09 PM 44.4208 -93.0636 148° Southeast 358 412 16,700 1,790 Climbing Minneapolis Center
Fri 06:05:11 PM 44.3333 -92.9886 148° Southeast 368 423 18,600 1,742 Climbing Minneapolis Center
Fri 06:06:13 PM 44.2425 -92.9111 149° Southeast 381 438 20,300 1,839 Climbing Minneapolis Center
Fri 06:07:15 PM 44.1469 -92.8472 154° Southeast 381 438 22,400 1,790 Climbing Minneapolis Center
Fri 06:08:17 PM 44.0303 -92.7661 153° Southeast 389 448 24,000 1,548 Climbing Minneapolis Center
Fri 06:09:19 PM 43.9269 -92.6967 154° Southeast 408 470 25,600 1,403 Climbing Minneapolis Center
Fri 06:10:21 PM 43.8247 -92.6256 153° Southeast 411 473 26,900 1,152 Climbing Minneapolis Center
Fri 06:11:24 PM 43.7097 -92.5850 166° South 426 490 28,000 960 Climbing Minneapolis Center
Fri 06:12:26 PM 43.5900 -92.5667 174° South 432 497 28,900 1,210 Climbing Minneapolis Center
Fri 06:13:28 PM 43.4461 -92.5425 173° South 439 505 30,500 1,355 Climbing Minneapolis Center
Fri 06:14:30 PM 43.3258 -92.5231 173° South 440 506 31,700 1,016 Climbing Minneapolis Center
Fri 06:15:32 PM 43.2042 -92.5053 174° South 444 511 32,600 1,065 Climbing Minneapolis Center
Fri 06:16:34 PM 43.0853 -92.4856 173° South 439 505 33,900 1,152 Climbing Minneapolis Center
Fri 06:17:11 PM 43.0133 -92.4728 173° South 434 499 34,500 667 Climbing Chicago Center
Fri 06:18:13 PM 42.8717 -92.4500 173° South 428 493 35,000 242 Climbing Chicago Center
Fri 06:19:15 PM 42.7575 -92.4303 173° South 427 491 35,000  Level Chicago Center
Fri 06:20:17 PM 42.6408 -92.4119 173° South 428 493 35,000  Level Chicago Center
Fri 06:21:20 PM 42.5358 -92.3453 155° Southeast 434 499 35,000  Level Chicago Center
Fri 06:22:22 PM 42.4511 -92.1811 125° Southeast 450 518 35,000  Level Chicago Center
Fri 06:23:24 PM 42.3861 -92.0422 122° Southeast 446 513 35,000  Level Chicago Center
Fri 06:24:26 PM 42.3203 -91.9083 124° Southeast 438 504 35,000  Level Chicago Center
Fri 06:25:28 PM 42.2542 -91.7703 123° Southeast 442 509 35,000  Level Chicago Center
Fri 06:26:30 PM 42.1761 -91.6089 123° Southeast 439 505 35,000  Level Chicago Center
Fri 06:27:32 PM 42.1089 -91.4725 124° Southeast 442 509 35,000  Level Chicago Center
Fri 06:28:34 PM 42.0428 -91.3361 123° Southeast 442 509 35,000  Level Chicago Center
Fri 06:29:36 PM 41.9756 -91.2006 124° Southeast 441 507 35,000  Level Chicago Center
Fri 06:30:38 PM 41.9089 -91.0644 123° Southeast 442 509 35,000  Level Chicago Center
Fri 06:31:40 PM 41.8283 -90.9011 123° Southeast 444 511 35,000  Level Chicago Center
Fri 06:32:42 PM 41.7606 -90.7664 124° Southeast 442 509 35,000  Level Chicago Center
Fri 06:33:45 PM 41.6850 -90.6156 124° Southeast 439 505 35,000  Level Chicago Center
Fri 06:34:47 PM 41.6172 -90.4803 124° Southeast 439 505 35,000  Level Chicago Center
Fri 06:35:49 PM 41.5472 -90.3447 125° Southeast 442 509 35,000  Level Chicago Center
Fri 06:36:51 PM 41.4775 -90.2078 124° Southeast 443 510 35,000  Level Chicago Center
Fri 06:37:53 PM 41.4086 -90.0703 124° Southeast 444 511 35,000  Level Chicago Center
Fri 06:38:55 PM 41.3389 -89.9336 124° Southeast 444 511 35,000  Level Chicago Center
Fri 06:39:57 PM 41.2678 -89.7975 125° Southeast 445 512 35,000  Level Chicago Center
Fri 06:40:59 PM 41.1825 -89.6306 124° Southeast 452 520 35,000  Level Chicago Center
Fri 06:42:01 PM 41.1614 -89.4697 100° East 443 510 35,000  Level Chicago Center
Fri 06:43:03 PM 41.1633 -89.3050 89° East 442 509 35,000  Level Chicago Center
Fri 06:44:05 PM 41.1653 -89.1292 89° East 438 504 35,000  Level Chicago Center
Fri 06:45:08 PM 41.1672 -88.9686 89° East 438 504 35,000  Level Chicago Center
Fri 06:46:10 PM 41.1669 -88.8064 90° East 441 507 35,000  Level Chicago Center
Fri 06:47:12 PM 41.1678 -88.6439 90° East 444 511 35,000  Level Chicago Center
Fri 06:48:14 PM 41.1681 -88.4817 90° East 444 511 35,000  Level Chicago Center
Fri 06:49:16 PM 41.1692 -88.2928 89° East 435 501 35,000  Level Chicago Center
Fri 06:50:18 PM 41.1689 -88.1372 90° East 430 495 35,000  Level Chicago Center
Fri 06:51:20 PM 41.1689 -87.9781 90° East 438 504 35,000  Level Chicago Center
Fri 06:52:22 PM 41.1689 -87.8186 90° East 441 507 35,000  Level Chicago Center
Fri 06:53:24 PM 41.1686 -87.6281 90° East 437 503 35,000 -48 Level Chicago Center
Fri 06:54:26 PM 41.1692 -87.4697 90° East 434 499 34,900 -435 Descending Chicago Center
Fri 06:55:28 PM 41.1678 -87.3142 91° East 428 493 34,100 -774 Descending Chicago Center
Fri 06:56:30 PM 41.1669 -87.1558 90° East 432 497 33,300 -532 Descending Chicago Center
Fri 06:57:32 PM 41.1647 -86.9967 91° East 436 502 33,000 -145 Descending Chicago Center
Fri 06:58:34 PM 41.1622 -86.8094 91° East 429 494 33,000  Level Chicago Center
Fri 06:59:36 PM 41.1603 -86.6506 91° East 434 499 33,000  Level Chicago Center
Fri 07:00:37 PM 41.1369 -86.4919 101° East 443 510 33,000  Level Chicago Center
Fri 07:01:39 PM 41.1036 -86.3408 106° East 436 502 33,000  Level Chicago Center
Fri 07:02:41 PM 41.0672 -86.1875 107° East 438 504 33,000  Level Chicago Center
Fri 07:03:43 PM 41.0233 -86.0031 107° East 439 505 33,000  Level Chicago Center
Fri 07:04:45 PM 40.9864 -85.8494 108° East 441 507 33,000  Level Chicago Center
Fri 07:05:47 PM 40.9489 -85.6933 108° East 445 512 33,000  Level Chicago Center
Fri 07:06:49 PM 40.9122 -85.5394 107° East 444 511 33,000  Level Chicago Center
Fri 07:07:51 PM 40.8747 -85.3853 108° East 444 511 33,000  Level Chicago Center
Fri 07:08:53 PM 40.8375 -85.2322 108° East 443 510 33,000  Level Chicago Center
Fri 07:09:54 PM 40.7925 -85.0494 108° East 440 506 33,000  Level Chicago Center
Fri 07:10:56 PM 40.7553 -84.8983 108° East 438 504 33,000  Level Chicago Center
Fri 07:11:58 PM 40.7175 -84.7483 108° East 434 499 33,000  Level Chicago Center
Fri 07:12:54 PM 40.6803 -84.5989 108° East 435 501 33,000  Level Indianapolis Center
Fri 07:13:56 PM 40.6422 -84.4469 108° East 437 503 33,000  Level Indianapolis Center
Fri 07:14:58 PM 40.6028 -84.2950 109° East 437 503 33,000  Level Indianapolis Center
Fri 07:16:00 PM 40.5647 -84.1439 108° East 435 501 33,000  Level Indianapolis Center
Fri 07:17:02 PM 40.5253 -83.9925 109° East 436 502 33,000  Level Indianapolis Center
Fri 07:18:03 PM 40.4867 -83.8425 109° East 433 498 33,000  Level Indianapolis Center
Fri 07:19:05 PM 40.4469 -83.6925 109° East 434 499 33,000  Level Indianapolis Center
Fri 07:20:07 PM 40.4000 -83.5125 109° East 433 498 33,000  Level Indianapolis Center
Fri 07:21:09 PM 40.3608 -83.3628 109° East 431 496 33,000  Level Indianapolis Center
Fri 07:22:11 PM 40.3208 -83.2119 109° East 434 499 33,000  Level Indianapolis Center
Fri 07:23:12 PM 40.2800 -83.0628 110° East 433 498 33,000  Level Indianapolis Center
Fri 07:24:14 PM 40.2397 -82.9131 109° East 433 498 33,000  Level Indianapolis Center
Fri 07:25:16 PM 40.2000 -82.7658 109° East 430 495 33,000  Level Indianapolis Center
Fri 07:26:18 PM 40.1600 -82.6189 110° East 428 493 33,000  Level Indianapolis Center
Fri 07:27:20 PM 40.1175 -82.4728 111° Southeast 429 494 33,000  Level Indianapolis Center
Fri 07:28:21 PM 40.0656 -82.2981 111° Southeast 429 494 33,000  Level Indianapolis Center
Fri 07:29:23 PM 40.0217 -82.1525 111° Southeast 431 496 33,000  Level Indianapolis Center
Fri 07:30:25 PM 39.9783 -82.0086 111° Southeast 428 493 33,000  Level Indianapolis Center
Fri 07:31:27 PM 39.9358 -81.8644 111° Southeast 426 490 33,000  Level Indianapolis Center
Fri 07:32:29 PM 39.8917 -81.7236 112° Southeast 421 484 33,000  Level Indianapolis Center
Fri 07:33:30 PM 39.8489 -81.5806 111° Southeast 422 486 33,000  Level Indianapolis Center
Fri 07:34:32 PM 39.7992 -81.4178 112° Southeast 420 483 33,000  Level Indianapolis Center
Fri 07:35:34 PM 39.7550 -81.2767 112° Southeast 420 483 33,000  Level Indianapolis Center
Fri 07:36:35 PM 39.7122 -81.1369 112° Southeast 415 478 33,000 -341 Level Indianapolis Center
Fri 07:37:37 PM 39.6678 -80.9967 112° Southeast 418 481 32,300 -774 Descending Indianapolis Center
Fri 07:38:39 PM 39.6250 -80.8578 112° Southeast 415 478 31,400 -629 Descending Indianapolis Center
Fri 07:39:41 PM 39.5806 -80.7181 112° Southeast 416 479 31,000 -195 Descending Indianapolis Center
Fri 07:40:42 PM 39.5381 -80.5750 111° Southeast 422 486 31,000  Level Indianapolis Center
Fri 07:41:44 PM 39.5067 -80.4283 105° East 422 486 31,000  Level Indianapolis Center
Fri 07:42:46 PM 39.4767 -80.2828 105° East 418 481 31,000  Level Indianapolis Center
Fri 07:43:48 PM 39.4378 -80.1069 106° East 423 487 31,000  Level Indianapolis Center
Fri 07:45:11 PM 39.4006 -79.9158 104° East 414 476 31,000  Level Washington Center
Fri 07:46:09 PM 39.3683 -79.7689 106° East 414 476 31,000  Level Washington Center
Fri 07:47:10 PM 39.3356 -79.6247 106° East 414 476 31,000  Level Washington Center
Fri 07:48:11 PM 39.3050 -79.4836 106° East 414 476 31,000 -893 Level Washington Center
Fri 07:49:11 PM 39.2722 -79.3344 106° East 419 482 29,200 -1,932 Descending Washington Center
Fri 07:50:09 PM 39.2411 -79.1881 105° East 419 482 27,200 -2,017 Descending Washington Center
Fri 07:51:10 PM 39.2292 -79.0294 96° East 427 491 25,200 -1,934 Descending Washington Center
Fri 07:52:10 PM 39.2144 -78.8786 97° East 432 497 23,300 -1,686 Descending Washington Center
Fri 07:53:11 PM 39.2033 -78.7575 97° East 427 491 21,800 -1,736 Descending Washington Center
Fri 07:54:11 PM 39.1864 -78.5961 98° East 422 486 19,800 -1,932 Descending Washington Center
Fri 07:55:09 PM 39.1733 -78.4564 97° East 411 473 18,000 -1,424 Descending Washington Center
Fri 07:56:09 PM 39.1533 -78.3217 101° East 391 450 17,000 -545 Descending Washington Center
Fri 07:57:10 PM 39.1208 -78.1947 108° East 377 434 16,900 -893 Descending Washington Center
Fri 07:58:10 PM 39.0881 -78.0653 108° East 377 434 15,200 -1,636 Descending Washington Center
Fri 07:59:11 PM 39.0553 -77.9386 108° East 377 434 13,600 -1,613 Descending Washington Center
Fri 08:00:09 PM 39.0261 -77.8228 108° East 351 404 12,000 -1,563 Descending Washington Center
Fri 08:01:10 PM 38.9950 -77.7069 109° East 325 374 10,500 -1,438 Descending Washington Center
Fri 08:02:10 PM 38.9714 -77.6128 108° East 309 356 9,100 -1,240 Descending Washington Center
Fri 08:03:11 PM 38.9439 -77.5106 109° East 295 339 8,000 -1,200 Descending Washington Center
Fri 08:04:10 PM 38.9667 -77.4333 69° East 225 259 6,700 -1,412 Descending Potomac TRACON
Fri 08:05:10 PM 39.0000 -77.3667 57° Northeast 213 245 5,200 -843 Descending Potomac TRACON
Fri 08:06:11 PM 39.0000 -77.2833 90° East 217 250 5,000 -446 Descending Potomac TRACON
Fri 08:07:11 PM 39.0000 -77.2167 90° East 199 229 4,300 -850 Descending Potomac TRACON
Fri 08:08:11 PM 38.9667 -77.1667 131° Southeast 171 197 3,300 -992 Descending Potomac TRACON
Fri 08:09:12 PM 38.9333 -77.1333 142° Southeast 142 163 2,300 -939 Descending Potomac TRACON
Fri 08:10:06 PM 38.9167 -77.1000 123° Southeast 132 152 1,500 -750 Descending Potomac TRACON
Fri 08:11:12 PM 38.9000 -77.0667 123° Southeast 140 161 800 -636 Descending Potomac TRACON

Login

Don't have an account? Register now (free) for customized features, flight alerts, and more!